createdAt,value
2023-04-01T00:02:08.180Z,88.22
2023-04-01T00:04:30.870Z,88.24
2023-04-01T00:06:53.925Z,88.12
2023-04-01T00:09:16.790Z,88.32
2023-04-01T00:11:39.696Z,88.82
2023-04-01T00:14:02.248Z,88.50
2023-04-01T00:16:25.578Z,88.38
2023-04-01T00:18:48.846Z,88.68
2023-04-01T00:21:11.496Z,88.62
2023-04-01T00:23:34.339Z,89.13
2023-04-01T00:25:56.988Z,88.86
2023-04-01T00:28:21.174Z,89.09
2023-04-01T00:30:43.789Z,89.19
2023-04-01T00:33:06.319Z,89.17
2023-04-01T00:35:29.718Z,88.76
2023-04-01T00:37:52.274Z,88.65
2023-04-01T00:40:33.652Z,88.54
2023-04-01T00:42:58.226Z,88.48
2023-04-01T00:45:42.429Z,88.54
2023-04-01T00:48:18.066Z,88.34
2023-04-01T00:50:43.305Z,88.56
2023-04-01T00:53:06.823Z,88.26
2023-04-01T00:55:32.030Z,88.23
2023-04-01T00:57:57.259Z,88.11
2023-04-01T01:00:20.130Z,88.23
2023-04-01T01:02:45.442Z,88.52
2023-04-01T01:05:08.540Z,88.22
2023-04-01T01:07:51.708Z,88.20
2023-04-01T01:10:19.190Z,87.98
2023-04-01T01:12:49.046Z,87.85
2023-04-01T01:15:32.517Z,87.85
2023-04-01T01:18:01.411Z,87.86
2023-04-01T01:20:35.420Z,87.73
2023-04-01T01:23:24.748Z,87.76
2023-04-01T01:26:11.923Z,87.45
2023-04-01T01:28:52.954Z,87.84
2023-04-01T01:31:44.878Z,88.11
2023-04-01T01:34:31.290Z,87.78
2023-04-01T01:36:59.136Z,87.36
2023-04-01T01:39:27.641Z,87.20
2023-04-01T01:41:50.753Z,87.35
2023-04-01T01:44:15.367Z,87.36
2023-04-01T01:46:40.579Z,87.24
2023-04-01T01:49:05.272Z,86.95
2023-04-01T01:51:28.965Z,86.90
2023-04-01T01:53:51.925Z,86.77
2023-04-01T01:56:19.414Z,86.70
2023-04-01T01:58:46.368Z,86.82
2023-04-01T02:01:16.602Z,86.72
2023-04-01T02:03:42.137Z,86.50
2023-04-01T02:06:08.757Z,86.05
2023-04-01T02:08:34.435Z,85.92
2023-04-01T02:11:02.064Z,86.16
2023-04-01T02:13:46.298Z,85.85
2023-04-01T02:16:32.870Z,85.86
2023-04-01T02:18:57.704Z,85.72
2023-04-01T02:21:22.563Z,86.00
2023-04-01T02:23:46.555Z,85.74
2023-04-01T02:26:12.465Z,85.82
2023-04-01T02:28:39.196Z,85.71
2023-04-01T02:31:03.656Z,85.65
2023-04-01T02:33:30.054Z,85.83
2023-04-01T02:35:52.630Z,85.74
2023-04-01T02:38:16.791Z,85.88
2023-04-01T02:41:01.167Z,85.79
2023-04-01T02:43:24.420Z,85.94
2023-04-01T02:45:46.944Z,86.34
2023-04-01T02:48:09.922Z,86.21
2023-04-01T02:50:32.511Z,86.50
2023-04-01T02:52:55.313Z,86.40
2023-04-01T02:55:18.020Z,86.47
2023-04-01T02:57:41.000Z,86.77
2023-04-01T03:00:04.147Z,86.89
2023-04-01T03:02:26.961Z,87.05
2023-04-01T03:04:49.624Z,87.10
2023-04-01T03:07:12.285Z,87.23
2023-04-01T03:09:34.876Z,87.06
2023-04-01T03:11:57.883Z,87.07
2023-04-01T03:14:20.505Z,86.91
2023-04-01T03:16:43.217Z,86.94
2023-04-01T03:19:05.920Z,87.04
2023-04-01T03:21:29.069Z,87.13
2023-04-01T03:23:51.910Z,87.46
2023-04-01T03:26:14.872Z,87.36
2023-04-01T03:28:38.612Z,87.20
2023-04-01T03:31:01.412Z,87.05
2023-04-01T03:33:26.091Z,86.69
2023-04-01T03:35:48.991Z,86.74
2023-04-01T03:38:11.894Z,86.53
2023-04-01T03:40:38.311Z,86.74
2023-04-01T03:43:01.311Z,86.66
2023-04-01T03:45:24.041Z,86.69
2023-04-01T03:47:46.756Z,87.22
2023-04-01T03:50:09.965Z,87.39
2023-04-01T03:52:33.927Z,87.50
2023-04-01T03:54:56.772Z,87.24
2023-04-01T03:57:19.819Z,87.37
2023-04-01T03:59:42.739Z,87.61
2023-04-01T04:02:06.451Z,87.46
2023-04-01T04:04:29.540Z,87.40
2023-04-01T04:06:52.361Z,87.33
2023-04-01T04:09:17.345Z,87.64
2023-04-01T04:11:40.404Z,87.40
2023-04-01T04:14:03.483Z,87.51
2023-04-01T04:16:26.444Z,87.59
2023-04-01T04:18:53.720Z,87.98
2023-04-01T04:21:16.644Z,87.75
2023-04-01T04:23:39.517Z,87.76
2023-04-01T04:26:05.500Z,87.51
2023-04-01T04:28:29.718Z,87.82
2023-04-01T04:30:55.693Z,87.56
2023-04-01T04:33:18.577Z,87.66
2023-04-01T04:35:41.139Z,87.52
2023-04-01T04:38:03.949Z,87.42
2023-04-01T04:40:26.732Z,87.30
2023-04-01T04:42:50.395Z,87.27
2023-04-01T04:45:13.726Z,87.17
2023-04-01T04:47:42.495Z,86.75
2023-04-01T04:50:06.418Z,86.62
2023-04-01T04:52:29.424Z,86.75
2023-04-01T04:54:51.985Z,86.39
2023-04-01T04:57:14.683Z,85.93
2023-04-01T04:59:43.765Z,85.14
2023-04-01T05:02:14.765Z,84.43
2023-04-01T05:04:38.137Z,82.76
2023-04-01T05:07:03.341Z,80.47
2023-04-01T05:09:26.683Z,78.98
2023-04-01T05:11:49.398Z,76.96
2023-04-01T05:14:16.838Z,75.83
2023-04-01T05:16:45.510Z,74.35
2023-04-01T05:19:08.317Z,74.11
2023-04-01T05:21:30.917Z,73.80
2023-04-01T05:23:54.353Z,73.80
2023-04-01T05:26:17.055Z,74.74
2023-04-01T05:28:40.108Z,74.63
2023-04-01T05:31:04.395Z,74.65
2023-04-01T05:33:32.267Z,75.27
2023-04-01T05:35:55.766Z,74.98
2023-04-01T05:38:18.554Z,74.69
2023-04-01T05:40:41.341Z,74.78
2023-04-01T05:43:04.351Z,74.56
2023-04-01T05:45:26.984Z,74.69
2023-04-01T05:47:55.630Z,74.47
2023-04-01T05:50:19.048Z,73.11
2023-04-01T05:52:41.841Z,75.00
2023-04-01T05:55:05.580Z,74.31
2023-04-01T05:57:28.282Z,73.62
2023-04-01T05:59:51.215Z,72.88
2023-04-01T06:02:14.313Z,72.90
2023-04-01T06:04:40.090Z,73.27
2023-04-01T06:07:11.726Z,73.09
2023-04-01T06:09:35.021Z,72.53
2023-04-01T06:12:43.751Z,72.55
2023-04-01T06:15:09.528Z,72.37
2023-04-01T06:17:46.781Z,71.45
2023-04-01T06:20:28.684Z,71.65
2023-04-01T06:23:14.798Z,70.68
2023-04-01T06:26:12.585Z,70.39
2023-04-01T06:29:00.686Z,70.46
2023-04-01T06:31:29.846Z,69.92
2023-04-01T06:34:14.240Z,69.18
2023-04-01T06:37:11.211Z,68.73
2023-04-01T06:39:52.303Z,68.19
2023-04-01T06:42:44.298Z,67.21
2023-04-01T06:45:47.569Z,67.60
2023-04-01T06:48:34.895Z,67.86
2023-04-01T06:51:35.510Z,67.02
2023-04-01T06:54:22.906Z,67.41
2023-04-01T06:57:15.536Z,66.34
2023-04-01T06:59:39.071Z,66.32
2023-04-01T07:02:22.603Z,66.76
2023-04-01T07:04:49.662Z,65.92
2023-04-01T07:07:30.379Z,65.67
2023-04-01T07:10:00.912Z,64.75
2023-04-01T07:12:57.374Z,63.66
2023-04-01T07:15:43.075Z,63.13
2023-04-01T07:18:17.203Z,63.68
2023-04-01T07:20:40.456Z,62.67
2023-04-01T07:23:37.224Z,61.20
2023-04-01T07:26:25.106Z,62.52
2023-04-01T07:29:00.359Z,62.79
2023-04-01T07:31:54.986Z,62.22
2023-04-01T07:34:28.326Z,61.48
2023-04-01T07:37:16.242Z,60.07
2023-04-01T07:39:45.774Z,59.22
2023-04-01T07:42:38.307Z,59.08
2023-04-01T07:45:35.172Z,58.03
2023-04-01T07:48:26.738Z,56.16
2023-04-01T07:51:13.175Z,54.90
2023-04-01T07:54:06.535Z,57.80
2023-04-01T07:56:47.963Z,55.43
2023-04-01T08:00:03.520Z,55.14
2023-04-01T08:02:51.728Z,54.01
2023-04-01T08:05:28.266Z,54.20
2023-04-01T08:08:10.654Z,52.05
2023-04-01T08:11:18.157Z,53.41
2023-04-01T08:14:19.239Z,56.37
2023-04-01T08:17:27.184Z,56.09
2023-04-01T08:20:17.166Z,55.25
2023-04-01T08:22:58.335Z,54.48
2023-04-01T08:25:32.027Z,54.44
2023-04-01T08:28:13.520Z,55.36
2023-04-01T08:30:44.330Z,55.88
2023-04-01T08:33:26.228Z,56.47
2023-04-01T08:36:04.728Z,57.05
2023-04-01T08:38:32.149Z,56.82
2023-04-01T08:41:07.903Z,57.04
2023-04-01T08:44:27.687Z,56.31
2023-04-01T08:47:21.419Z,55.45
2023-04-01T08:50:12.090Z,54.75
2023-04-01T08:53:29.627Z,54.39
2023-04-01T08:55:53.492Z,53.89
2023-04-01T08:58:34.745Z,55.30
2023-04-01T09:01:55.623Z,56.06
2023-04-01T09:05:15.756Z,56.09
2023-04-01T09:08:04.625Z,57.10
2023-04-01T09:10:56.730Z,56.60
2023-04-01T09:13:57.704Z,56.25
2023-04-01T09:16:39.062Z,55.96
2023-04-01T09:19:30.860Z,56.19
2023-04-01T09:22:44.175Z,55.24
2023-04-01T09:25:25.641Z,55.40
2023-04-01T09:28:21.129Z,56.07
2023-04-01T09:31:10.442Z,55.31
2023-04-01T09:34:08.134Z,53.51
2023-04-01T09:37:13.754Z,53.82
2023-04-01T09:39:47.135Z,54.41
2023-04-01T09:42:14.106Z,53.71
2023-04-01T09:45:00.306Z,53.41
2023-04-01T09:47:38.289Z,53.22
2023-04-01T09:50:40.212Z,53.53
2023-04-01T09:53:08.450Z,53.39
2023-04-01T09:55:48.966Z,54.31
2023-04-01T09:58:43.896Z,55.65
2023-04-01T10:02:12.895Z,57.10
2023-04-01T10:05:12.546Z,55.19
2023-04-01T10:07:58.464Z,54.72
2023-04-01T10:10:58.133Z,55.68
2023-04-01T10:13:48.435Z,55.52
2023-04-01T10:16:32.935Z,56.86
2023-04-01T10:19:22.676Z,56.69
2023-04-01T10:21:57.575Z,56.73
2023-04-01T10:25:00.988Z,57.26
2023-04-01T10:28:00.946Z,56.25
2023-04-01T10:31:06.487Z,55.04
2023-04-01T10:33:35.383Z,55.46
2023-04-01T10:36:10.053Z,54.49
2023-04-01T10:38:35.699Z,53.67
2023-04-01T10:41:32.201Z,52.61
2023-04-01T10:44:46.802Z,53.11
2023-04-01T10:47:31.285Z,52.80
2023-04-01T10:50:06.128Z,53.48
2023-04-01T10:52:38.103Z,52.68
2023-04-01T10:55:43.476Z,52.36
2023-04-01T10:59:00.451Z,52.64
2023-04-01T11:02:32.877Z,52.92
2023-04-01T11:05:23.262Z,53.62
2023-04-01T11:08:26.978Z,53.72
2023-04-01T11:11:12.754Z,53.04
2023-04-01T11:14:01.976Z,51.62
2023-04-01T11:16:47.897Z,51.74
2023-04-01T11:22:57.021Z,50.27
2023-04-01T11:25:19.992Z,50.76
2023-04-01T11:28:17.633Z,51.26
2023-04-01T11:31:01.516Z,51.04
2023-04-01T11:33:39.684Z,50.90
2023-04-01T11:36:11.655Z,51.37
2023-04-01T11:39:26.909Z,51.00
2023-04-01T11:42:36.014Z,50.81
2023-04-01T11:45:57.576Z,49.94
2023-04-01T11:48:52.124Z,48.33
2023-04-01T11:51:39.225Z,48.06
2023-04-01T11:54:37.897Z,49.34
2023-04-01T11:57:36.716Z,48.71
2023-04-01T12:00:36.659Z,49.94
2023-04-01T12:03:18.511Z,50.37
2023-04-01T12:05:53.782Z,51.66
2023-04-01T12:08:44.178Z,51.74
2023-04-01T12:11:22.993Z,50.92
2023-04-01T12:14:00.816Z,50.96
2023-04-01T12:16:41.462Z,50.05
2023-04-01T12:19:25.003Z,50.05
2023-04-01T12:22:19.819Z,50.60
2023-04-01T12:24:51.364Z,51.22
2023-04-01T12:27:32.619Z,51.28
2023-04-01T12:30:10.579Z,49.93
2023-04-01T12:32:55.466Z,49.67
2023-04-01T12:35:36.502Z,49.83
2023-04-01T12:38:19.693Z,50.22
2023-04-01T12:41:11.274Z,49.07
2023-04-01T12:43:42.945Z,49.36
2023-04-01T12:46:24.048Z,50.22
2023-04-01T12:49:16.087Z,50.18
2023-04-01T12:52:05.879Z,50.24
2023-04-01T12:54:43.719Z,50.53
2023-04-01T12:57:21.493Z,50.27
2023-04-01T12:59:54.701Z,50.07
2023-04-01T13:02:40.837Z,50.93
2023-04-01T13:05:49.358Z,50.88
2023-04-01T13:08:44.047Z,53.10
2023-04-01T13:11:16.296Z,52.70
2023-04-01T13:14:25.370Z,53.85
2023-04-01T13:17:09.310Z,53.96
2023-04-01T13:19:48.586Z,53.79
2023-04-01T13:22:26.330Z,54.47
2023-04-01T13:25:16.642Z,55.51
2023-04-01T13:27:43.858Z,55.53
2023-04-01T13:30:28.314Z,54.82
2023-04-01T13:33:18.037Z,54.81
2023-04-01T13:35:55.332Z,54.66
2023-04-01T13:38:39.372Z,53.53
2023-04-01T13:41:16.859Z,54.21
2023-04-01T13:44:01.643Z,54.65
2023-04-01T13:46:51.338Z,54.47
2023-04-01T13:49:52.306Z,53.50
2023-04-01T13:52:43.456Z,52.88
2023-04-01T13:55:20.606Z,52.58
2023-04-01T13:58:01.376Z,50.25
2023-04-01T14:00:42.843Z,50.28
2023-04-01T14:03:20.983Z,50.02
2023-04-01T14:06:08.366Z,51.71
2023-04-01T14:08:37.539Z,51.35
2023-04-01T14:11:12.340Z,51.03
2023-04-01T14:14:01.280Z,51.19
2023-04-01T14:16:38.837Z,51.55
2023-04-01T14:19:31.709Z,53.03
2023-04-01T14:22:12.945Z,52.49
2023-04-01T14:24:47.400Z,54.14
2023-04-01T14:27:51.438Z,55.39
2023-04-01T14:30:53.017Z,56.50
2023-04-01T14:33:30.583Z,57.88
2023-04-01T14:35:53.219Z,57.78
2023-04-01T14:38:23.582Z,56.82
2023-04-01T14:40:49.103Z,56.43
2023-04-01T14:43:23.568Z,55.91
2023-04-01T14:46:00.366Z,54.71
2023-04-01T14:48:43.228Z,54.34
2023-04-01T14:51:19.859Z,53.47
2023-04-01T14:54:05.974Z,52.35
2023-04-01T14:56:45.933Z,52.67
2023-04-01T14:59:34.132Z,52.63
2023-04-01T15:02:38.708Z,54.04
2023-04-01T15:05:39.088Z,53.57
2023-04-01T15:08:05.062Z,54.50
2023-04-01T15:11:04.480Z,54.35
2023-04-01T15:13:29.835Z,55.14
2023-04-01T15:16:10.553Z,55.00
2023-04-01T15:19:01.105Z,55.57
2023-04-01T15:21:44.906Z,55.85
2023-04-01T15:24:16.483Z,55.19
2023-04-01T15:27:09.600Z,56.28
2023-04-01T15:30:02.319Z,56.46
2023-04-01T15:32:42.353Z,56.57
2023-04-01T15:35:44.165Z,55.53
2023-04-01T15:38:22.838Z,55.05
2023-04-01T15:41:11.413Z,54.86
2023-04-01T15:43:53.274Z,52.68
2023-04-01T15:46:43.190Z,51.03
2023-04-01T15:49:31.188Z,50.09
2023-04-01T15:52:05.972Z,50.78
2023-04-01T15:54:40.581Z,51.48
2023-04-01T15:57:13.110Z,51.66
2023-04-01T15:59:53.118Z,51.39
2023-04-01T16:02:46.778Z,50.38
2023-04-01T16:05:43.830Z,50.51
2023-04-01T16:08:15.598Z,50.70
2023-04-01T16:11:05.839Z,49.80
2023-04-01T16:13:47.520Z,49.99
2023-04-01T16:16:28.514Z,50.94
2023-04-01T16:18:57.410Z,50.26
2023-04-01T16:21:37.332Z,49.52
2023-04-01T16:24:22.296Z,49.78
2023-04-01T16:26:58.976Z,50.70
2023-04-01T16:29:30.290Z,50.75
2023-04-01T16:32:29.353Z,51.02
2023-04-01T16:35:14.229Z,51.81
2023-04-01T16:38:00.157Z,52.38
2023-04-01T16:40:48.201Z,53.65
2023-04-01T16:43:11.263Z,53.08
2023-04-01T16:46:02.341Z,53.72
2023-04-01T16:49:07.087Z,54.82
2023-04-01T16:51:58.353Z,54.21
2023-04-01T16:54:45.815Z,53.91
2023-04-01T16:57:11.552Z,54.92
2023-04-01T16:59:42.290Z,54.98
2023-04-01T17:02:07.700Z,55.40
2023-04-01T17:04:44.194Z,55.76
2023-04-01T17:07:19.467Z,56.39
2023-04-01T17:09:54.029Z,56.17
2023-04-01T17:12:40.990Z,56.98
2023-04-01T17:15:15.422Z,57.26
2023-04-01T17:17:56.850Z,57.67
2023-04-01T17:20:31.602Z,58.08
2023-04-01T17:23:01.946Z,58.76
2023-04-01T17:25:59.198Z,58.74
2023-04-01T17:28:24.904Z,59.51
2023-04-01T17:30:59.654Z,59.02
2023-04-01T17:33:35.006Z,59.67
2023-04-01T17:36:13.040Z,60.17
2023-04-01T17:38:57.415Z,59.81
2023-04-01T17:41:29.360Z,59.80
2023-04-01T17:44:28.302Z,60.50
2023-04-01T17:47:22.202Z,61.42
2023-04-01T17:50:10.074Z,61.28
2023-04-01T17:52:44.444Z,61.37
2023-04-01T17:55:19.098Z,61.39
2023-04-01T17:57:51.739Z,62.06
2023-04-01T18:00:42.063Z,63.29
2023-04-01T18:03:29.269Z,63.81
2023-04-01T18:06:10.844Z,63.85
2023-04-01T18:08:52.568Z,64.15
2023-04-01T18:11:35.970Z,63.69
2023-04-01T18:14:17.524Z,64.10
2023-04-01T18:17:01.147Z,63.89
2023-04-01T18:19:42.972Z,64.18
2023-04-01T18:22:30.094Z,64.23
2023-04-01T18:25:08.486Z,64.27
2023-04-01T18:28:16.498Z,64.67
2023-04-01T18:30:40.945Z,65.73
2023-04-01T18:33:20.971Z,65.58
2023-04-01T18:36:10.608Z,65.67
2023-04-01T18:38:50.296Z,65.89
2023-04-01T18:41:37.467Z,65.76
2023-04-01T18:44:48.811Z,65.59
2023-04-01T18:47:28.428Z,65.63
2023-04-01T18:50:17.562Z,65.07
2023-04-01T18:52:44.521Z,65.40
2023-04-01T18:55:31.622Z,65.34
2023-04-01T18:58:17.931Z,65.15
2023-04-01T19:01:03.755Z,64.90
2023-04-01T19:03:40.200Z,64.63
2023-04-01T19:06:16.502Z,65.73
2023-04-01T19:08:41.856Z,65.77
2023-04-01T19:11:30.593Z,65.61
2023-04-01T19:14:31.194Z,65.69
2023-04-01T19:17:32.263Z,65.61
2023-04-01T19:20:24.355Z,66.02
2023-04-01T19:22:53.322Z,66.17
2023-04-01T19:25:34.881Z,66.35
2023-04-01T19:28:22.368Z,66.57
2023-04-01T19:31:21.985Z,66.49
2023-04-01T19:34:00.745Z,66.61
2023-04-01T19:36:32.251Z,66.97
2023-04-01T19:39:21.424Z,67.43
2023-04-01T19:42:03.021Z,67.52
2023-04-01T19:44:44.646Z,67.97
2023-04-01T19:47:39.266Z,67.49
2023-04-01T19:50:28.372Z,67.93
2023-04-01T19:52:53.676Z,67.73
2023-04-01T19:55:25.473Z,67.72
2023-04-01T19:58:24.877Z,67.96
2023-04-01T20:00:55.227Z,68.01
2023-04-01T20:03:40.053Z,68.01
2023-04-01T20:06:06.535Z,68.23
2023-04-01T20:08:41.252Z,68.44
2023-04-01T20:11:36.243Z,69.22
2023-04-01T20:14:06.393Z,68.82
2023-04-01T20:16:53.717Z,67.65
2023-04-01T20:19:26.724Z,67.75
2023-04-01T20:21:51.498Z,67.66
2023-04-01T20:24:14.271Z,67.58
2023-04-01T20:26:40.694Z,68.07
2023-04-01T20:29:16.078Z,68.73
2023-04-01T20:31:43.312Z,67.88
2023-04-01T20:34:27.379Z,67.26
2023-04-01T20:37:09.526Z,67.81
2023-04-01T20:39:49.058Z,68.16
2023-04-01T20:42:35.654Z,68.97
2023-04-01T20:45:35.979Z,69.97
2023-04-01T20:48:20.602Z,69.95
2023-04-01T20:51:04.613Z,70.27
2023-04-01T20:54:04.769Z,70.05
2023-04-01T20:56:40.060Z,69.76
2023-04-01T20:59:24.982Z,69.91
2023-04-01T21:02:11.901Z,69.98
2023-04-01T21:05:12.528Z,70.21
2023-04-01T21:07:47.419Z,69.98
2023-04-01T21:10:47.322Z,70.40
2023-04-01T21:13:30.258Z,69.92
2023-04-01T21:16:13.218Z,70.14
2023-04-01T21:18:37.604Z,70.39
2023-04-01T21:21:37.755Z,70.44
2023-04-01T21:24:29.154Z,70.47
2023-04-01T21:27:14.277Z,70.78
2023-04-01T21:29:52.971Z,71.17
2023-04-01T21:32:37.067Z,70.79
2023-04-01T21:35:21.462Z,71.45
2023-04-01T21:37:49.852Z,71.70
2023-04-01T21:40:24.460Z,71.90
2023-04-01T21:43:23.068Z,71.76
2023-04-01T21:46:23.167Z,72.05
2023-04-01T21:52:48.968Z,72.00
2023-04-01T21:55:45.519Z,72.41
2023-04-01T21:58:23.226Z,72.37
2023-04-01T22:00:57.937Z,72.47
2023-04-01T22:03:42.444Z,72.63
2023-04-01T22:06:33.356Z,72.68
2023-04-01T22:09:04.241Z,72.72
2023-04-01T22:11:36.011Z,72.76
2023-04-01T22:14:05.646Z,72.99
2023-04-01T22:16:38.215Z,72.74
2023-04-01T22:19:16.219Z,72.62
2023-04-01T22:22:02.610Z,73.02
2023-04-01T22:24:34.482Z,73.27
2023-04-01T22:27:02.593Z,73.08
2023-04-01T22:29:38.615Z,73.20
2023-04-01T22:32:18.593Z,73.22
2023-04-01T22:35:02.500Z,73.29
2023-04-01T22:37:34.117Z,73.57
2023-04-01T22:39:56.762Z,73.85
2023-04-01T22:42:22.069Z,73.89
2023-04-01T22:45:23.929Z,74.22
2023-04-01T22:48:02.711Z,74.39
2023-04-01T22:50:56.377Z,74.93
2023-04-01T22:53:29.292Z,75.51
2023-04-01T22:55:55.849Z,75.63
2023-04-01T22:58:31.386Z,76.04
2023-04-01T23:00:59.425Z,76.10
2023-04-01T23:03:33.415Z,76.31
2023-04-01T23:05:58.859Z,76.32
2023-04-01T23:08:30.633Z,76.44
2023-04-01T23:11:03.621Z,76.42
2023-04-01T23:13:36.360Z,76.56
2023-04-01T23:15:59.375Z,76.52
2023-04-01T23:18:50.942Z,76.79
2023-04-01T23:21:35.579Z,77.08
2023-04-01T23:24:12.930Z,77.20
2023-04-01T23:26:57.742Z,77.37
2023-04-01T23:29:24.019Z,77.20
2023-04-01T23:31:48.297Z,76.86
2023-04-01T23:34:13.810Z,77.38
2023-04-01T23:36:49.670Z,76.90
2023-04-01T23:39:36.754Z,77.47
2023-04-01T23:42:06.775Z,77.06
2023-04-01T23:44:30.469Z,77.41
2023-04-01T23:46:54.581Z,77.19
2023-04-01T23:49:25.579Z,77.27
2023-04-01T23:52:09.732Z,77.11
2023-04-01T23:54:45.931Z,76.64
2023-04-01T23:57:22.823Z,76.13
